sensor_id;sensor_type;location;lat;lon;timestamp;P1;durP1;ratioP1;P2;durP2;ratioP2
20758;SDS011;10539;53.686;9.158;2023-01-16T00:00:51;8.97;;;4.93;;
20758;SDS011;10539;53.686;9.158;2023-01-16T00:03:18;7.70;;;4.13;;
20758;SDS011;10539;53.686;9.158;2023-01-16T00:05:44;7.23;;;4.60;;
20758;SDS011;10539;53.686;9.158;2023-01-16T00:08:10;8.27;;;4.70;;
20758;SDS011;10539;53.686;9.158;2023-01-16T00:10:36;11.93;;;5.40;;
20758;SDS011;10539;53.686;9.158;2023-01-16T00:13:02;11.83;;;5.30;;
20758;SDS011;10539;53.686;9.158;2023-01-16T00:15:28;9.70;;;5.00;;
20758;SDS011;10539;53.686;9.158;2023-01-16T00:17:54;7.70;;;4.83;;
20758;SDS011;10539;53.686;9.158;2023-01-16T00:20:19;10.50;;;5.60;;
20758;SDS011;10539;53.686;9.158;2023-01-16T00:22:45;8.67;;;4.20;;
20758;SDS011;10539;53.686;9.158;2023-01-16T00:25:11;10.93;;;5.20;;
20758;SDS011;10539;53.686;9.158;2023-01-16T00:27:37;10.10;;;4.90;;
20758;SDS011;10539;53.686;9.158;2023-01-16T00:30:03;7.10;;;4.97;;
20758;SDS011;10539;53.686;9.158;2023-01-16T00:32:30;8.60;;;5.10;;
20758;SDS011;10539;53.686;9.158;2023-01-16T00:34:56;8.43;;;5.30;;
20758;SDS011;10539;53.686;9.158;2023-01-16T00:37:22;6.93;;;4.20;;
20758;SDS011;10539;53.686;9.158;2023-01-16T00:39:48;10.37;;;4.90;;
20758;SDS011;10539;53.686;9.158;2023-01-16T00:42:17;7.43;;;4.53;;
20758;SDS011;10539;53.686;9.158;2023-01-16T00:44:42;8.20;;;4.30;;
20758;SDS011;10539;53.686;9.158;2023-01-16T00:47:08;13.53;;;4.60;;
20758;SDS011;10539;53.686;9.158;2023-01-16T00:49:34;11.00;;;4.90;;
20758;SDS011;10539;53.686;9.158;2023-01-16T00:52:00;9.00;;;4.63;;
20758;SDS011;10539;53.686;9.158;2023-01-16T00:54:26;9.27;;;5.47;;
20758;SDS011;10539;53.686;9.158;2023-01-16T00:56:51;8.63;;;3.60;;
20758;SDS011;10539;53.686;9.158;2023-01-16T00:59:17;10.53;;;4.40;;
20758;SDS011;10539;53.686;9.158;2023-01-16T01:01:43;8.50;;;4.33;;
20758;SDS011;10539;53.686;9.158;2023-01-16T01:04:09;9.07;;;4.13;;
20758;SDS011;10539;53.686;9.158;2023-01-16T01:06:34;8.47;;;3.83;;
20758;SDS011;10539;53.686;9.158;2023-01-16T01:09:00;5.83;;;3.13;;
20758;SDS011;10539;53.686;9.158;2023-01-16T01:11:26;9.50;;;3.53;;
20758;SDS011;10539;53.686;9.158;2023-01-16T01:13:51;4.63;;;3.37;;
20758;SDS011;10539;53.686;9.158;2023-01-16T01:16:17;4.83;;;3.27;;
20758;SDS011;10539;53.686;9.158;2023-01-16T01:18:42;6.30;;;3.17;;
20758;SDS011;10539;53.686;9.158;2023-01-16T01:21:08;4.10;;;2.53;;
20758;SDS011;10539;53.686;9.158;2023-01-16T01:23:35;9.20;;;3.10;;
20758;SDS011;10539;53.686;9.158;2023-01-16T01:26:07;7.80;;;3.57;;
20758;SDS011;10539;53.686;9.158;2023-01-16T01:28:35;5.20;;;2.73;;
20758;SDS011;10539;53.686;9.158;2023-01-16T01:31:07;6.07;;;2.93;;
20758;SDS011;10539;53.686;9.158;2023-01-16T01:33:34;6.90;;;2.97;;
20758;SDS011;10539;53.686;9.158;2023-01-16T01:36:00;4.90;;;2.63;;
20758;SDS011;10539;53.686;9.158;2023-01-16T01:38:27;7.07;;;2.43;;
20758;SDS011;10539;53.686;9.158;2023-01-16T01:40:52;6.30;;;2.80;;
20758;SDS011;10539;53.686;9.158;2023-01-16T01:43:18;4.97;;;2.60;;
20758;SDS011;10539;53.686;9.158;2023-01-16T01:45:54;9.83;;;2.47;;
20758;SDS011;10539;53.686;9.158;2023-01-16T01:48:24;3.90;;;2.33;;
20758;SDS011;10539;53.686;9.158;2023-01-16T01:50:56;6.77;;;2.40;;
20758;SDS011;10539;53.686;9.158;2023-01-16T01:55:55;6.37;;;2.40;;
20758;SDS011;10539;53.686;9.158;2023-01-16T01:58:27;10.80;;;2.43;;
20758;SDS011;10539;53.686;9.158;2023-01-16T02:00:54;4.43;;;2.57;;
20758;SDS011;10539;53.686;9.158;2023-01-16T02:03:27;6.80;;;2.53;;
20758;SDS011;10539;53.686;9.158;2023-01-16T02:06:05;6.40;;;2.30;;
20758;SDS011;10539;53.686;9.158;2023-01-16T02:08:34;4.97;;;2.00;;
20758;SDS011;10539;53.686;9.158;2023-01-16T02:11:06;5.23;;;2.30;;
20758;SDS011;10539;53.686;9.158;2023-01-16T02:13:57;6.60;;;2.23;;
20758;SDS011;10539;53.686;9.158;2023-01-16T02:16:26;6.43;;;2.07;;
20758;SDS011;10539;53.686;9.158;2023-01-16T02:31:03;6.53;;;1.97;;
20758;SDS011;10539;53.686;9.158;2023-01-16T02:36:09;6.03;;;2.07;;
20758;SDS011;10539;53.686;9.158;2023-01-16T02:44:55;4.97;;;2.43;;
20758;SDS011;10539;53.686;9.158;2023-01-16T02:47:28;5.20;;;2.20;;
20758;SDS011;10539;53.686;9.158;2023-01-16T02:53:01;7.77;;;2.20;;
20758;SDS011;10539;53.686;9.158;2023-01-16T02:55:42;4.50;;;2.00;;
20758;SDS011;10539;53.686;9.158;2023-01-16T02:58:22;4.93;;;2.20;;
20758;SDS011;10539;53.686;9.158;2023-01-16T03:00:56;6.80;;;2.00;;
20758;SDS011;10539;53.686;9.158;2023-01-16T03:09:02;8.77;;;2.60;;
20758;SDS011;10539;53.686;9.158;2023-01-16T03:14:41;2.70;;;1.93;;
20758;SDS011;10539;53.686;9.158;2023-01-16T03:20:47;4.43;;;1.97;;
20758;SDS011;10539;53.686;9.158;2023-01-16T03:25:58;4.53;;;1.83;;
20758;SDS011;10539;53.686;9.158;2023-01-16T03:28:52;6.07;;;2.10;;
20758;SDS011;10539;53.686;9.158;2023-01-16T03:31:36;3.20;;;1.93;;
20758;SDS011;10539;53.686;9.158;2023-01-16T03:36:58;7.00;;;1.80;;
20758;SDS011;10539;53.686;9.158;2023-01-16T03:39:29;3.43;;;2.03;;
20758;SDS011;10539;53.686;9.158;2023-01-16T03:42:01;6.97;;;2.23;;
20758;SDS011;10539;53.686;9.158;2023-01-16T03:44:35;7.40;;;2.60;;
20758;SDS011;10539;53.686;9.158;2023-01-16T03:47:05;3.07;;;2.03;;
20758;SDS011;10539;53.686;9.158;2023-01-16T03:49:34;3.77;;;2.27;;
20758;SDS011;10539;53.686;9.158;2023-01-16T03:52:04;13.10;;;2.50;;
20758;SDS011;10539;53.686;9.158;2023-01-16T03:54:38;4.10;;;2.03;;
20758;SDS011;10539;53.686;9.158;2023-01-16T03:57:15;6.07;;;2.47;;
20758;SDS011;10539;53.686;9.158;2023-01-16T04:00:03;6.63;;;2.50;;
20758;SDS011;10539;53.686;9.158;2023-01-16T04:02:32;6.77;;;2.37;;
20758;SDS011;10539;53.686;9.158;2023-01-16T04:08:01;6.63;;;2.10;;
20758;SDS011;10539;53.686;9.158;2023-01-16T04:10:31;5.20;;;2.20;;
20758;SDS011;10539;53.686;9.158;2023-01-16T04:13:01;3.37;;;1.73;;
20758;SDS011;10539;53.686;9.158;2023-01-16T04:15:32;3.63;;;2.10;;
20758;SDS011;10539;53.686;9.158;2023-01-16T04:17:59;4.83;;;2.10;;
20758;SDS011;10539;53.686;9.158;2023-01-16T04:20:26;4.90;;;1.70;;
20758;SDS011;10539;53.686;9.158;2023-01-16T04:22:54;7.97;;;2.30;;
20758;SDS011;10539;53.686;9.158;2023-01-16T04:25:19;3.67;;;1.80;;
20758;SDS011;10539;53.686;9.158;2023-01-16T04:27:46;5.50;;;2.10;;
20758;SDS011;10539;53.686;9.158;2023-01-16T04:30:12;7.00;;;2.13;;
20758;SDS011;10539;53.686;9.158;2023-01-16T04:32:38;4.30;;;2.17;;
20758;SDS011;10539;53.686;9.158;2023-01-16T04:35:04;11.77;;;2.10;;
20758;SDS011;10539;53.686;9.158;2023-01-16T04:37:30;6.77;;;2.27;;
20758;SDS011;10539;53.686;9.158;2023-01-16T04:39:56;3.73;;;1.77;;
20758;SDS011;10539;53.686;9.158;2023-01-16T04:42:24;5.07;;;1.73;;
20758;SDS011;10539;53.686;9.158;2023-01-16T04:44:49;3.90;;;2.20;;
20758;SDS011;10539;53.686;9.158;2023-01-16T04:47:15;7.27;;;2.07;;
20758;SDS011;10539;53.686;9.158;2023-01-16T04:49:41;8.20;;;1.67;;
20758;SDS011;10539;53.686;9.158;2023-01-16T04:52:07;6.57;;;2.20;;
20758;SDS011;10539;53.686;9.158;2023-01-16T04:54:33;6.10;;;2.00;;
20758;SDS011;10539;53.686;9.158;2023-01-16T04:56:58;5.80;;;1.90;;
20758;SDS011;10539;53.686;9.158;2023-01-16T04:59:26;4.70;;;2.03;;
20758;SDS011;10539;53.686;9.158;2023-01-16T05:01:52;5.70;;;2.10;;
20758;SDS011;10539;53.686;9.158;2023-01-16T05:04:18;4.60;;;1.90;;
20758;SDS011;10539;53.686;9.158;2023-01-16T05:06:45;9.50;;;2.37;;
20758;SDS011;10539;53.686;9.158;2023-01-16T05:09:10;6.00;;;1.83;;
20758;SDS011;10539;53.686;9.158;2023-01-16T05:11:36;6.43;;;1.50;;
20758;SDS011;10539;53.686;9.158;2023-01-16T05:14:02;4.60;;;1.60;;
20758;SDS011;10539;53.686;9.158;2023-01-16T05:16:32;6.20;;;1.50;;
20758;SDS011;10539;53.686;9.158;2023-01-16T05:18:58;5.67;;;1.60;;
20758;SDS011;10539;53.686;9.158;2023-01-16T05:21:24;6.53;;;1.70;;
20758;SDS011;10539;53.686;9.158;2023-01-16T05:23:50;5.77;;;1.40;;
20758;SDS011;10539;53.686;9.158;2023-01-16T05:26:15;5.33;;;1.37;;
20758;SDS011;10539;53.686;9.158;2023-01-16T05:28:41;3.93;;;1.20;;
20758;SDS011;10539;53.686;9.158;2023-01-16T05:31:07;5.47;;;1.67;;
20758;SDS011;10539;53.686;9.158;2023-01-16T05:33:33;4.50;;;1.23;;
20758;SDS011;10539;53.686;9.158;2023-01-16T05:35:59;3.53;;;1.67;;
20758;SDS011;10539;53.686;9.158;2023-01-16T05:38:24;5.17;;;1.60;;
20758;SDS011;10539;53.686;9.158;2023-01-16T05:40:50;3.60;;;1.33;;
20758;SDS011;10539;53.686;9.158;2023-01-16T05:43:16;4.17;;;1.20;;
20758;SDS011;10539;53.686;9.158;2023-01-16T05:45:43;4.00;;;1.30;;
20758;SDS011;10539;53.686;9.158;2023-01-16T05:48:08;5.70;;;1.50;;
20758;SDS011;10539;53.686;9.158;2023-01-16T05:50:34;5.53;;;1.23;;
20758;SDS011;10539;53.686;9.158;2023-01-16T05:53:00;4.60;;;1.13;;
20758;SDS011;10539;53.686;9.158;2023-01-16T05:55:26;2.10;;;1.10;;
20758;SDS011;10539;53.686;9.158;2023-01-16T05:57:52;2.23;;;1.30;;
20758;SDS011;10539;53.686;9.158;2023-01-16T06:00:18;3.23;;;1.30;;
20758;SDS011;10539;53.686;9.158;2023-01-16T06:02:44;3.47;;;1.00;;
20758;SDS011;10539;53.686;9.158;2023-01-16T06:05:11;2.87;;;1.17;;
20758;SDS011;10539;53.686;9.158;2023-01-16T06:07:38;2.33;;;0.83;;
20758;SDS011;10539;53.686;9.158;2023-01-16T06:10:04;6.43;;;1.10;;
20758;SDS011;10539;53.686;9.158;2023-01-16T06:12:30;2.87;;;1.10;;
20758;SDS011;10539;53.686;9.158;2023-01-16T06:14:59;2.53;;;0.87;;
20758;SDS011;10539;53.686;9.158;2023-01-16T06:17:25;3.97;;;1.07;;
20758;SDS011;10539;53.686;9.158;2023-01-16T06:19:50;2.03;;;0.87;;
20758;SDS011;10539;53.686;9.158;2023-01-16T06:22:16;3.10;;;0.97;;
20758;SDS011;10539;53.686;9.158;2023-01-16T06:24:43;3.77;;;1.20;;
20758;SDS011;10539;53.686;9.158;2023-01-16T06:27:08;4.70;;;1.50;;
20758;SDS011;10539;53.686;9.158;2023-01-16T06:29:34;4.87;;;1.20;;
20758;SDS011;10539;53.686;9.158;2023-01-16T06:32:00;5.50;;;1.20;;
20758;SDS011;10539;53.686;9.158;2023-01-16T06:34:25;3.67;;;1.37;;
20758;SDS011;10539;53.686;9.158;2023-01-16T06:36:51;4.40;;;1.50;;
20758;SDS011;10539;53.686;9.158;2023-01-16T06:39:17;3.40;;;1.20;;
20758;SDS011;10539;53.686;9.158;2023-01-16T06:41:43;4.23;;;1.10;;
20758;SDS011;10539;53.686;9.158;2023-01-16T06:44:09;3.07;;;1.10;;
20758;SDS011;10539;53.686;9.158;2023-01-16T06:46:35;3.43;;;0.90;;
20758;SDS011;10539;53.686;9.158;2023-01-16T06:49:01;3.30;;;1.13;;
20758;SDS011;10539;53.686;9.158;2023-01-16T06:51:27;3.47;;;1.10;;
20758;SDS011;10539;53.686;9.158;2023-01-16T06:53:53;2.73;;;1.10;;
20758;SDS011;10539;53.686;9.158;2023-01-16T06:56:18;3.63;;;1.27;;
20758;SDS011;10539;53.686;9.158;2023-01-16T06:58:44;3.47;;;1.30;;
20758;SDS011;10539;53.686;9.158;2023-01-16T07:01:10;6.00;;;1.07;;
20758;SDS011;10539;53.686;9.158;2023-01-16T07:03:35;4.37;;;1.47;;
20758;SDS011;10539;53.686;9.158;2023-01-16T07:06:02;5.57;;;1.27;;
20758;SDS011;10539;53.686;9.158;2023-01-16T07:08:28;3.40;;;0.93;;
20758;SDS011;10539;53.686;9.158;2023-01-16T07:11:00;4.73;;;1.37;;
20758;SDS011;10539;53.686;9.158;2023-01-16T07:13:26;2.80;;;1.20;;
20758;SDS011;10539;53.686;9.158;2023-01-16T07:15:54;5.97;;;1.10;;
20758;SDS011;10539;53.686;9.158;2023-01-16T07:18:39;3.10;;;1.07;;
20758;SDS011;10539;53.686;9.158;2023-01-16T07:21:24;5.77;;;1.00;;
20758;SDS011;10539;53.686;9.158;2023-01-16T07:24:12;4.63;;;1.17;;
20758;SDS011;10539;53.686;9.158;2023-01-16T07:26:43;6.37;;;1.10;;
20758;SDS011;10539;53.686;9.158;2023-01-16T07:29:12;4.17;;;1.20;;
20758;SDS011;10539;53.686;9.158;2023-01-16T07:31:38;7.37;;;1.13;;
20758;SDS011;10539;53.686;9.158;2023-01-16T07:34:04;3.23;;;1.00;;
20758;SDS011;10539;53.686;9.158;2023-01-16T07:36:30;7.40;;;1.40;;
20758;SDS011;10539;53.686;9.158;2023-01-16T07:38:56;3.67;;;1.13;;
20758;SDS011;10539;53.686;9.158;2023-01-16T07:41:22;4.40;;;1.17;;
20758;SDS011;10539;53.686;9.158;2023-01-16T07:43:47;3.43;;;1.30;;
20758;SDS011;10539;53.686;9.158;2023-01-16T07:46:13;4.13;;;1.20;;
20758;SDS011;10539;53.686;9.158;2023-01-16T07:48:39;5.27;;;1.53;;
20758;SDS011;10539;53.686;9.158;2023-01-16T07:51:04;4.23;;;1.47;;
20758;SDS011;10539;53.686;9.158;2023-01-16T07:53:30;4.43;;;1.23;;
20758;SDS011;10539;53.686;9.158;2023-01-16T07:55:58;4.03;;;1.37;;
20758;SDS011;10539;53.686;9.158;2023-01-16T07:58:25;4.70;;;1.80;;
20758;SDS011;10539;53.686;9.158;2023-01-16T08:00:52;4.17;;;1.00;;
20758;SDS011;10539;53.686;9.158;2023-01-16T08:03:19;7.57;;;1.33;;
20758;SDS011;10539;53.686;9.158;2023-01-16T08:05:45;2.87;;;1.00;;
20758;SDS011;10539;53.686;9.158;2023-01-16T08:08:13;4.43;;;1.30;;
20758;SDS011;10539;53.686;9.158;2023-01-16T08:10:39;1.90;;;1.37;;
20758;SDS011;10539;53.686;9.158;2023-01-16T08:13:05;4.90;;;1.13;;
20758;SDS011;10539;53.686;9.158;2023-01-16T08:15:31;4.40;;;1.10;;
20758;SDS011;10539;53.686;9.158;2023-01-16T08:17:57;8.17;;;1.53;;
20758;SDS011;10539;53.686;9.158;2023-01-16T08:20:22;3.93;;;1.50;;
20758;SDS011;10539;53.686;9.158;2023-01-16T08:22:50;4.77;;;1.33;;
20758;SDS011;10539;53.686;9.158;2023-01-16T08:25:18;7.93;;;1.70;;
20758;SDS011;10539;53.686;9.158;2023-01-16T08:27:46;3.53;;;1.20;;
20758;SDS011;10539;53.686;9.158;2023-01-16T08:30:12;3.60;;;1.00;;
20758;SDS011;10539;53.686;9.158;2023-01-16T08:32:40;1.97;;;1.20;;
20758;SDS011;10539;53.686;9.158;2023-01-16T08:35:07;3.13;;;1.00;;
20758;SDS011;10539;53.686;9.158;2023-01-16T08:37:34;6.13;;;1.40;;
20758;SDS011;10539;53.686;9.158;2023-01-16T08:40:00;4.67;;;1.50;;
20758;SDS011;10539;53.686;9.158;2023-01-16T08:42:26;4.80;;;1.30;;
20758;SDS011;10539;53.686;9.158;2023-01-16T08:45:13;4.07;;;1.30;;
20758;SDS011;10539;53.686;9.158;2023-01-16T08:47:57;3.47;;;1.30;;
20758;SDS011;10539;53.686;9.158;2023-01-16T08:50:44;2.67;;;1.37;;
20758;SDS011;10539;53.686;9.158;2023-01-16T08:53:29;5.83;;;1.57;;
20758;SDS011;10539;53.686;9.158;2023-01-16T08:55:55;4.07;;;1.53;;
20758;SDS011;10539;53.686;9.158;2023-01-16T08:58:21;3.50;;;1.30;;
20758;SDS011;10539;53.686;9.158;2023-01-16T09:00:47;2.33;;;1.10;;
20758;SDS011;10539;53.686;9.158;2023-01-16T09:03:14;4.80;;;1.60;;
20758;SDS011;10539;53.686;9.158;2023-01-16T09:05:42;5.30;;;1.40;;
20758;SDS011;10539;53.686;9.158;2023-01-16T09:08:09;3.10;;;1.23;;
20758;SDS011;10539;53.686;9.158;2023-01-16T09:10:34;5.23;;;1.37;;
20758;SDS011;10539;53.686;9.158;2023-01-16T09:13:00;4.33;;;1.33;;
20758;SDS011;10539;53.686;9.158;2023-01-16T09:15:45;4.67;;;1.40;;
20758;SDS011;10539;53.686;9.158;2023-01-16T09:18:11;8.43;;;1.40;;
20758;SDS011;10539;53.686;9.158;2023-01-16T09:20:37;4.57;;;1.10;;
20758;SDS011;10539;53.686;9.158;2023-01-16T09:23:02;3.20;;;1.03;;
20758;SDS011;10539;53.686;9.158;2023-01-16T09:25:30;2.80;;;1.23;;
20758;SDS011;10539;53.686;9.158;2023-01-16T09:27:57;2.40;;;1.20;;
20758;SDS011;10539;53.686;9.158;2023-01-16T09:30:25;4.90;;;1.10;;
20758;SDS011;10539;53.686;9.158;2023-01-16T09:32:52;3.73;;;1.00;;
20758;SDS011;10539;53.686;9.158;2023-01-16T09:35:17;3.33;;;1.30;;
20758;SDS011;10539;53.686;9.158;2023-01-16T09:37:44;2.87;;;0.80;;
20758;SDS011;10539;53.686;9.158;2023-01-16T09:40:14;2.93;;;1.00;;
20758;SDS011;10539;53.686;9.158;2023-01-16T09:45:52;5.47;;;1.37;;
20758;SDS011;10539;53.686;9.158;2023-01-16T09:49:17;5.40;;;1.80;;
20758;SDS011;10539;53.686;9.158;2023-01-16T09:51:11;5.33;;;1.80;;
20758;SDS011;10539;53.686;9.158;2023-01-16T09:53:43;4.17;;;1.10;;
20758;SDS011;10539;53.686;9.158;2023-01-16T09:56:42;5.30;;;1.57;;
20758;SDS011;10539;53.686;9.158;2023-01-16T09:59:36;4.80;;;1.07;;
20758;SDS011;10539;53.686;9.158;2023-01-16T10:02:22;5.47;;;1.37;;
20758;SDS011;10539;53.686;9.158;2023-01-16T10:04:52;2.73;;;1.37;;
20758;SDS011;10539;53.686;9.158;2023-01-16T10:18:27;1.23;;;0.70;;
20758;SDS011;10539;53.686;9.158;2023-01-16T10:21:21;4.70;;;1.03;;
20758;SDS011;10539;53.686;9.158;2023-01-16T10:24:18;2.33;;;0.90;;
20758;SDS011;10539;53.686;9.158;2023-01-16T10:29:33;4.93;;;0.90;;
20758;SDS011;10539;53.686;9.158;2023-01-16T10:32:05;1.73;;;0.90;;
20758;SDS011;10539;53.686;9.158;2023-01-16T10:35:04;4.07;;;1.20;;
20758;SDS011;10539;53.686;9.158;2023-01-16T10:37:37;3.10;;;0.97;;
20758;SDS011;10539;53.686;9.158;2023-01-16T10:40:09;2.83;;;1.13;;
20758;SDS011;10539;53.686;9.158;2023-01-16T10:42:39;3.60;;;1.17;;
20758;SDS011;10539;53.686;9.158;2023-01-16T10:45:27;5.63;;;1.30;;
20758;SDS011;10539;53.686;9.158;2023-01-16T10:48:15;3.43;;;1.10;;
20758;SDS011;10539;53.686;9.158;2023-01-16T10:51:00;6.10;;;0.97;;
20758;SDS011;10539;53.686;9.158;2023-01-16T10:53:28;2.00;;;0.70;;
20758;SDS011;10539;53.686;9.158;2023-01-16T10:55:55;3.77;;;1.20;;
20758;SDS011;10539;53.686;9.158;2023-01-16T11:00:59;2.93;;;0.90;;
20758;SDS011;10539;53.686;9.158;2023-01-16T11:03:35;5.50;;;0.90;;
20758;SDS011;10539;53.686;9.158;2023-01-16T11:06:05;3.20;;;0.87;;
20758;SDS011;10539;53.686;9.158;2023-01-16T11:11:29;1.90;;;0.90;;
20758;SDS011;10539;53.686;9.158;2023-01-16T11:14:19;2.20;;;1.03;;
20758;SDS011;10539;53.686;9.158;2023-01-16T11:17:29;2.83;;;1.00;;
20758;SDS011;10539;53.686;9.158;2023-01-16T11:22:44;2.50;;;1.03;;
20758;SDS011;10539;53.686;9.158;2023-01-16T11:25:17;1.47;;;0.90;;
20758;SDS011;10539;53.686;9.158;2023-01-16T11:27:45;2.10;;;1.10;;
20758;SDS011;10539;53.686;9.158;2023-01-16T11:30:15;3.63;;;1.10;;
20758;SDS011;10539;53.686;9.158;2023-01-16T11:32:44;1.70;;;0.70;;
20758;SDS011;10539;53.686;9.158;2023-01-16T11:35:13;5.83;;;1.00;;
20758;SDS011;10539;53.686;9.158;2023-01-16T11:37:42;2.17;;;1.17;;
20758;SDS011;10539;53.686;9.158;2023-01-16T11:40:14;4.07;;;0.90;;
20758;SDS011;10539;53.686;9.158;2023-01-16T11:42:57;2.17;;;0.90;;
20758;SDS011;10539;53.686;9.158;2023-01-16T11:45:45;4.10;;;1.13;;
20758;SDS011;10539;53.686;9.158;2023-01-16T11:48:52;2.30;;;1.10;;
20758;SDS011;10539;53.686;9.158;2023-01-16T11:51:19;3.63;;;1.00;;
20758;SDS011;10539;53.686;9.158;2023-01-16T11:53:47;1.63;;;0.93;;
20758;SDS011;10539;53.686;9.158;2023-01-16T12:13:12;4.07;;;1.10;;
20758;SDS011;10539;53.686;9.158;2023-01-16T12:16:04;2.67;;;1.07;;
20758;SDS011;10539;53.686;9.158;2023-01-16T12:18:59;5.07;;;0.90;;
20758;SDS011;10539;53.686;9.158;2023-01-16T12:21:29;4.10;;;1.20;;
20758;SDS011;10539;53.686;9.158;2023-01-16T12:24:21;2.80;;;0.93;;
20758;SDS011;10539;53.686;9.158;2023-01-16T12:27:09;3.90;;;1.07;;
20758;SDS011;10539;53.686;9.158;2023-01-16T12:30:20;3.33;;;0.87;;
20758;SDS011;10539;53.686;9.158;2023-01-16T12:33:07;1.90;;;1.00;;
20758;SDS011;10539;53.686;9.158;2023-01-16T12:38:35;5.47;;;1.10;;
20758;SDS011;10539;53.686;9.158;2023-01-16T12:41:46;4.17;;;1.17;;
20758;SDS011;10539;53.686;9.158;2023-01-16T12:47:51;4.97;;;1.10;;
20758;SDS011;10539;53.686;9.158;2023-01-16T12:50:27;4.73;;;0.70;;
20758;SDS011;10539;53.686;9.158;2023-01-16T12:58:23;2.97;;;0.83;;
20758;SDS011;10539;53.686;9.158;2023-01-16T13:03:33;3.47;;;0.70;;
20758;SDS011;10539;53.686;9.158;2023-01-16T13:06:05;8.40;;;1.00;;
20758;SDS011;10539;53.686;9.158;2023-01-16T13:08:42;2.93;;;0.60;;
20758;SDS011;10539;53.686;9.158;2023-01-16T13:11:20;1.23;;;0.53;;
20758;SDS011;10539;53.686;9.158;2023-01-16T13:14:08;4.00;;;1.10;;
20758;SDS011;10539;53.686;9.158;2023-01-16T13:16:44;2.73;;;0.90;;
20758;SDS011;10539;53.686;9.158;2023-01-16T13:19:23;6.13;;;1.40;;
20758;SDS011;10539;53.686;9.158;2023-01-16T13:21:59;3.23;;;0.90;;
20758;SDS011;10539;53.686;9.158;2023-01-16T13:24:33;3.97;;;1.37;;
20758;SDS011;10539;53.686;9.158;2023-01-16T13:27:13;2.57;;;1.00;;
20758;SDS011;10539;53.686;9.158;2023-01-16T13:29:44;2.27;;;1.03;;
20758;SDS011;10539;53.686;9.158;2023-01-16T13:32:22;4.90;;;0.90;;
20758;SDS011;10539;53.686;9.158;2023-01-16T13:35:04;3.83;;;0.80;;
20758;SDS011;10539;53.686;9.158;2023-01-16T13:43:08;4.70;;;0.93;;
20758;SDS011;10539;53.686;9.158;2023-01-16T13:46:00;1.53;;;0.70;;
20758;SDS011;10539;53.686;9.158;2023-01-16T13:48:28;4.47;;;0.80;;
20758;SDS011;10539;53.686;9.158;2023-01-16T13:50:58;3.13;;;0.90;;
20758;SDS011;10539;53.686;9.158;2023-01-16T13:53:25;4.23;;;0.93;;
20758;SDS011;10539;53.686;9.158;2023-01-16T13:56:04;6.70;;;1.03;;
20758;SDS011;10539;53.686;9.158;2023-01-16T13:58:42;4.33;;;0.90;;
20758;SDS011;10539;53.686;9.158;2023-01-16T14:06:46;6.33;;;1.50;;
20758;SDS011;10539;53.686;9.158;2023-01-16T14:20:41;5.23;;;1.17;;
20758;SDS011;10539;53.686;9.158;2023-01-16T14:26:16;1.03;;;0.83;;
20758;SDS011;10539;53.686;9.158;2023-01-16T14:28:48;3.90;;;0.80;;
20758;SDS011;10539;53.686;9.158;2023-01-16T14:31:23;2.33;;;0.90;;
20758;SDS011;10539;53.686;9.158;2023-01-16T14:33:52;1.77;;;0.70;;
20758;SDS011;10539;53.686;9.158;2023-01-16T14:36:22;5.47;;;1.00;;
20758;SDS011;10539;53.686;9.158;2023-01-16T14:38:50;3.43;;;0.77;;
20758;SDS011;10539;53.686;9.158;2023-01-16T14:41:17;2.50;;;0.83;;
20758;SDS011;10539;53.686;9.158;2023-01-16T14:44:17;2.20;;;1.00;;
20758;SDS011;10539;53.686;9.158;2023-01-16T14:47:11;4.83;;;0.80;;
20758;SDS011;10539;53.686;9.158;2023-01-16T14:50:13;1.67;;;0.90;;
20758;SDS011;10539;53.686;9.158;2023-01-16T14:53:18;2.90;;;0.90;;
20758;SDS011;10539;53.686;9.158;2023-01-16T14:56:14;4.37;;;0.90;;
20758;SDS011;10539;53.686;9.158;2023-01-16T14:58:56;5.20;;;1.00;;
20758;SDS011;10539;53.686;9.158;2023-01-16T15:01:53;2.90;;;1.13;;
20758;SDS011;10539;53.686;9.158;2023-01-16T15:04:41;2.70;;;0.90;;
20758;SDS011;10539;53.686;9.158;2023-01-16T15:07:16;2.30;;;0.83;;
20758;SDS011;10539;53.686;9.158;2023-01-16T15:09:47;3.93;;;1.10;;
20758;SDS011;10539;53.686;9.158;2023-01-16T15:12:15;3.07;;;0.70;;
20758;SDS011;10539;53.686;9.158;2023-01-16T15:14:52;2.80;;;0.73;;
20758;SDS011;10539;53.686;9.158;2023-01-16T15:20:28;1.57;;;0.70;;
20758;SDS011;10539;53.686;9.158;2023-01-16T15:23:30;1.80;;;0.67;;
20758;SDS011;10539;53.686;9.158;2023-01-16T15:31:10;1.30;;;0.70;;
20758;SDS011;10539;53.686;9.158;2023-01-16T15:33:41;0.50;;;0.50;;
20758;SDS011;10539;53.686;9.158;2023-01-16T15:36:15;4.63;;;0.90;;
20758;SDS011;10539;53.686;9.158;2023-01-16T15:38:56;3.07;;;1.00;;
20758;SDS011;10539;53.686;9.158;2023-01-16T15:41:43;2.23;;;0.83;;
20758;SDS011;10539;53.686;9.158;2023-01-16T15:44:32;4.47;;;1.50;;
20758;SDS011;10539;53.686;9.158;2023-01-16T15:53:05;2.23;;;0.70;;
20758;SDS011;10539;53.686;9.158;2023-01-16T15:55:36;2.73;;;0.87;;
20758;SDS011;10539;53.686;9.158;2023-01-16T15:58:12;2.37;;;0.80;;
20758;SDS011;10539;53.686;9.158;2023-01-16T16:00:41;2.23;;;0.80;;
20758;SDS011;10539;53.686;9.158;2023-01-16T16:05:46;3.43;;;0.67;;
20758;SDS011;10539;53.686;9.158;2023-01-16T16:08:17;2.80;;;0.77;;
20758;SDS011;10539;53.686;9.158;2023-01-16T16:10:46;2.90;;;1.00;;
20758;SDS011;10539;53.686;9.158;2023-01-16T16:13:31;4.13;;;1.13;;
20758;SDS011;10539;53.686;9.158;2023-01-16T16:16:01;3.47;;;0.83;;
20758;SDS011;10539;53.686;9.158;2023-01-16T16:18:57;4.73;;;1.03;;
20758;SDS011;10539;53.686;9.158;2023-01-16T16:21:25;3.03;;;0.97;;
20758;SDS011;10539;53.686;9.158;2023-01-16T16:24:27;1.57;;;0.70;;
20758;SDS011;10539;53.686;9.158;2023-01-16T16:26:56;4.07;;;0.90;;
20758;SDS011;10539;53.686;9.158;2023-01-16T16:29:22;3.47;;;0.80;;
20758;SDS011;10539;53.686;9.158;2023-01-16T16:31:48;2.13;;;0.70;;
20758;SDS011;10539;53.686;9.158;2023-01-16T16:36:45;3.23;;;1.07;;
20758;SDS011;10539;53.686;9.158;2023-01-16T16:47:32;6.43;;;1.10;;
20758;SDS011;10539;53.686;9.158;2023-01-16T16:50:00;3.70;;;1.37;;
20758;SDS011;10539;53.686;9.158;2023-01-16T16:54:59;7.27;;;2.13;;
20758;SDS011;10539;53.686;9.158;2023-01-16T16:57:32;1.93;;;1.00;;
20758;SDS011;10539;53.686;9.158;2023-01-16T17:00:09;2.93;;;0.97;;
20758;SDS011;10539;53.686;9.158;2023-01-16T17:02:40;5.37;;;1.40;;
20758;SDS011;10539;53.686;9.158;2023-01-16T17:05:11;2.97;;;1.30;;
20758;SDS011;10539;53.686;9.158;2023-01-16T17:07:39;3.27;;;1.00;;
20758;SDS011;10539;53.686;9.158;2023-01-16T17:10:11;5.60;;;1.20;;
20758;SDS011;10539;53.686;9.158;2023-01-16T17:12:38;3.60;;;1.30;;
20758;SDS011;10539;53.686;9.158;2023-01-16T17:15:04;3.47;;;1.10;;
20758;SDS011;10539;53.686;9.158;2023-01-16T17:17:31;3.40;;;1.47;;
20758;SDS011;10539;53.686;9.158;2023-01-16T17:19:57;3.30;;;1.10;;
20758;SDS011;10539;53.686;9.158;2023-01-16T17:22:23;5.70;;;1.20;;
20758;SDS011;10539;53.686;9.158;2023-01-16T17:24:49;2.90;;;1.20;;
20758;SDS011;10539;53.686;9.158;2023-01-16T17:27:16;1.47;;;1.10;;
20758;SDS011;10539;53.686;9.158;2023-01-16T17:29:41;1.17;;;0.80;;
20758;SDS011;10539;53.686;9.158;2023-01-16T17:32:12;1.93;;;1.17;;
20758;SDS011;10539;53.686;9.158;2023-01-16T17:34:55;1.97;;;0.90;;
20758;SDS011;10539;53.686;9.158;2023-01-16T17:37:22;3.80;;;0.77;;
20758;SDS011;10539;53.686;9.158;2023-01-16T17:39:48;1.30;;;0.80;;
20758;SDS011;10539;53.686;9.158;2023-01-16T17:42:13;1.23;;;0.60;;
20758;SDS011;10539;53.686;9.158;2023-01-16T17:44:40;5.33;;;0.80;;
20758;SDS011;10539;53.686;9.158;2023-01-16T17:47:24;2.43;;;0.90;;
20758;SDS011;10539;53.686;9.158;2023-01-16T17:49:51;1.87;;;0.70;;
20758;SDS011;10539;53.686;9.158;2023-01-16T17:52:36;3.07;;;1.27;;
20758;SDS011;10539;53.686;9.158;2023-01-16T17:55:02;2.20;;;1.00;;